createdAt,value
2017-04-16T00:00:16.358Z,54.1
2017-04-16T00:10:06.967Z,54.1
2017-04-16T00:20:00.561Z,54.1
2017-04-16T00:30:16.393Z,54.1
2017-04-16T00:40:06.368Z,54.1
2017-04-16T00:50:00.667Z,54.1
2017-04-16T01:00:33.765Z,54.1
2017-04-16T01:10:10.116Z,54.1
2017-04-16T01:20:06.364Z,53.5
2017-04-16T01:30:33.647Z,54.1
2017-04-16T01:40:33.678Z,54.1
2017-04-16T01:50:16.359Z,54.1
2017-04-16T02:00:06.368Z,53.5
2017-04-16T02:10:06.332Z,53.5
2017-04-16T02:20:06.387Z,54.1
2017-04-16T02:30:06.377Z,53.5
2017-04-16T02:40:06.582Z,53.5
2017-04-16T02:50:06.360Z,53.5
2017-04-16T03:00:06.357Z,53.5
2017-04-16T03:10:06.357Z,53.5
2017-04-16T03:20:06.360Z,53.5
2017-04-16T03:30:00.827Z,53.5
2017-04-16T03:40:33.646Z,53
2017-04-16T03:50:11.614Z,53
2017-04-16T04:00:06.357Z,53.5
2017-04-16T04:10:06.490Z,53
2017-04-16T04:20:06.365Z,53
2017-04-16T04:30:06.360Z,53
2017-04-16T04:40:06.357Z,53
2017-04-16T04:50:02.179Z,53
2017-04-16T05:00:06.358Z,53
2017-04-16T05:10:06.355Z,52.5
2017-04-16T05:20:06.357Z,53
2017-04-16T05:30:01.140Z,53
2017-04-16T05:40:33.646Z,53
2017-04-16T05:50:06.450Z,53
2017-04-16T06:00:14.251Z,53
2017-04-16T06:10:16.354Z,53
2017-04-16T06:20:16.361Z,53
2017-04-16T06:30:16.386Z,53
2017-04-16T06:40:14.580Z,53.5
2017-04-16T06:50:00.886Z,53.5
2017-04-16T07:00:16.360Z,53
2017-04-16T07:10:06.418Z,53.5
2017-04-16T07:20:06.365Z,54.1
2017-04-16T07:30:06.361Z,53.5
2017-04-16T07:40:06.364Z,53
2017-04-16T07:50:06.360Z,53.5
2017-04-16T08:00:06.401Z,53.5
2017-04-16T08:10:00.970Z,54.1
2017-04-16T08:20:16.367Z,54.6
2017-04-16T08:30:06.364Z,54.1
2017-04-16T08:40:06.350Z,55.1
2017-04-16T08:50:00.988Z,54.6
2017-04-16T09:00:26.363Z,55.1
2017-04-16T09:10:26.423Z,55.1
2017-04-16T09:20:15.895Z,55.1
2017-04-16T09:30:16.363Z,55.1
2017-04-16T09:40:16.405Z,55.1
2017-04-16T09:50:06.404Z,55.1
2017-04-16T10:00:06.366Z,55.1
2017-04-16T10:10:06.401Z,55.1
2017-04-16T10:20:06.373Z,55.7
2017-04-16T10:30:05.621Z,55.7
2017-04-16T10:40:06.363Z,55.1
2017-04-16T10:50:01.175Z,55.7
2017-04-16T11:00:33.649Z,55.7
2017-04-16T11:10:06.371Z,55.7
2017-04-16T11:20:17.338Z,55.7
2017-04-16T11:30:01.256Z,55.7
2017-04-16T11:40:26.359Z,55.7
2017-04-16T11:50:06.128Z,56.2
2017-04-16T12:00:06.362Z,56.2
2017-04-16T12:10:06.394Z,56.2
2017-04-16T12:20:06.363Z,56.2
2017-04-16T12:30:06.362Z,56.2
2017-04-16T12:40:06.397Z,56.2
2017-04-16T12:50:01.388Z,56.2
2017-04-16T13:00:06.364Z,56.2
2017-04-16T13:10:04.628Z,56.2
2017-04-16T13:20:06.396Z,56.2
2017-04-16T13:30:06.378Z,56.2
2017-04-16T13:40:06.363Z,56.2
2017-04-16T13:50:06.389Z,55.1
2017-04-16T14:00:06.608Z,56.2
2017-04-16T14:10:01.279Z,55.1
2017-04-16T14:20:26.358Z,55.1
2017-04-16T14:30:05.393Z,55.1
2017-04-16T14:40:06.363Z,54.1
2017-04-16T14:50:01.363Z,54.6
2017-04-16T15:00:06.364Z,55.1
2017-04-16T15:10:06.362Z,55.1
2017-04-16T15:20:06.357Z,55.1
2017-04-16T15:30:01.489Z,54.1
2017-04-16T15:40:06.359Z,55.1
2017-04-16T15:50:04.899Z,54.6
2017-04-16T16:00:06.361Z,55.1
2017-04-16T16:10:01.394Z,55.1
2017-04-16T16:20:06.389Z,55.1
2017-04-16T16:30:06.362Z,55.1
2017-04-16T16:40:06.363Z,55.1
2017-04-16T16:50:01.396Z,55.1
2017-04-16T17:00:06.391Z,55.1
2017-04-16T17:10:02.618Z,55.1
2017-04-16T17:20:06.371Z,55.1
2017-04-16T17:30:01.441Z,54.1
2017-04-16T17:40:06.404Z,55.1
2017-04-16T17:50:06.358Z,55.1
2017-04-16T18:00:06.388Z,54.6
2017-04-16T18:10:01.491Z,55.1
2017-04-16T18:20:06.362Z,54.6
2017-04-16T18:30:03.130Z,55.1
2017-04-16T18:40:06.370Z,55.1
2017-04-16T18:50:01.477Z,55.1
2017-04-16T19:00:06.360Z,55.1
2017-04-16T19:10:01.532Z,55.1
2017-04-16T19:20:06.366Z,55.1
2017-04-16T19:30:06.370Z,54.6
2017-04-16T19:40:06.437Z,54.6
2017-04-16T19:50:01.618Z,55.1
2017-04-16T20:00:06.363Z,54.1
2017-04-16T20:10:06.397Z,55.1
2017-04-16T20:20:06.369Z,54.1
2017-04-16T20:30:01.665Z,55.1
2017-04-16T20:40:06.431Z,54.6
2017-04-16T20:50:06.366Z,54.6
2017-04-16T21:00:06.394Z,54.1
2017-04-16T21:10:01.593Z,54.1
2017-04-16T21:20:06.360Z,54.1
2017-04-16T21:30:06.358Z,54.1
2017-04-16T21:40:06.362Z,54.6
2017-04-16T21:50:01.664Z,54.1
2017-04-16T22:00:06.364Z,54.1
2017-04-16T22:10:06.368Z,54.6
2017-04-16T22:20:06.366Z,54.6
2017-04-16T22:30:01.773Z,54.1
2017-04-16T22:40:06.366Z,54.1
2017-04-16T22:50:06.361Z,54.1
2017-04-16T23:00:06.364Z,54.1
2017-04-16T23:10:01.782Z,54.6
2017-04-16T23:20:06.359Z,54.1
2017-04-16T23:30:06.397Z,54.1
2017-04-16T23:40:06.356Z,54.1
2017-04-16T23:50:06.358Z,54.1
